sensor_id;sensor_type;location;lat;lon;timestamp;temperature;humidity
4002;DHT22;2015;48.670;9.060;2023-01-25T00:00:38;1.80;99.90
4002;DHT22;2015;48.670;9.060;2023-01-25T00:03:09;1.70;99.90
4002;DHT22;2015;48.670;9.060;2023-01-25T00:05:41;1.80;99.90
4002;DHT22;2015;48.670;9.060;2023-01-25T00:08:13;1.80;99.90
4002;DHT22;2015;48.670;9.060;2023-01-25T00:10:50;1.80;99.90
4002;DHT22;2015;48.670;9.060;2023-01-25T00:13:22;1.80;99.90
4002;DHT22;2015;48.670;9.060;2023-01-25T00:16:00;1.80;99.90
4002;DHT22;2015;48.670;9.060;2023-01-25T00:18:32;1.80;99.90
4002;DHT22;2015;48.670;9.060;2023-01-25T00:21:20;1.90;99.90
4002;DHT22;2015;48.670;9.060;2023-01-25T00:23:52;1.80;99.90
4002;DHT22;2015;48.670;9.060;2023-01-25T00:26:24;1.90;99.90
4002;DHT22;2015;48.670;9.060;2023-01-25T00:28:56;1.80;99.90
4002;DHT22;2015;48.670;9.060;2023-01-25T00:34:36;1.80;99.90
4002;DHT22;2015;48.670;9.060;2023-01-25T00:37:41;1.80;99.90
4002;DHT22;2015;48.670;9.060;2023-01-25T00:40:14;1.80;99.90
4002;DHT22;2015;48.670;9.060;2023-01-25T00:42:46;1.90;99.90
4002;DHT22;2015;48.670;9.060;2023-01-25T00:45:18;1.90;99.90
4002;DHT22;2015;48.670;9.060;2023-01-25T00:47:53;1.90;99.90
4002;DHT22;2015;48.670;9.060;2023-01-25T00:50:25;1.90;99.90
4002;DHT22;2015;48.670;9.060;2023-01-25T00:52:57;1.90;99.90
4002;DHT22;2015;48.670;9.060;2023-01-25T00:55:29;1.90;99.90
4002;DHT22;2015;48.670;9.060;2023-01-25T00:58:00;1.80;99.90
4002;DHT22;2015;48.670;9.060;2023-01-25T01:00:32;1.80;99.90
4002;DHT22;2015;48.670;9.060;2023-01-25T01:03:04;1.90;99.90
4002;DHT22;2015;48.670;9.060;2023-01-25T01:05:36;1.90;99.90
4002;DHT22;2015;48.670;9.060;2023-01-25T01:08:08;1.90;99.90
4002;DHT22;2015;48.670;9.060;2023-01-25T01:21:23;1.80;99.90
4002;DHT22;2015;48.670;9.060;2023-01-25T01:23:55;1.90;99.90
4002;DHT22;2015;48.670;9.060;2023-01-25T01:26:27;1.90;99.90
4002;DHT22;2015;48.670;9.060;2023-01-25T01:28:59;1.90;99.90
4002;DHT22;2015;48.670;9.060;2023-01-25T01:31:31;1.90;99.90
4002;DHT22;2015;48.670;9.060;2023-01-25T01:34:03;1.90;99.90
4002;DHT22;2015;48.670;9.060;2023-01-25T01:36:34;1.90;99.90
4002;DHT22;2015;48.670;9.060;2023-01-25T01:39:06;1.90;99.90
4002;DHT22;2015;48.670;9.060;2023-01-25T01:41:38;1.90;99.90
4002;DHT22;2015;48.670;9.060;2023-01-25T01:44:20;1.90;99.90
4002;DHT22;2015;48.670;9.060;2023-01-25T01:46:55;2.00;99.90
4002;DHT22;2015;48.670;9.060;2023-01-25T01:49:30;1.90;99.90
4002;DHT22;2015;48.670;9.060;2023-01-25T01:52:12;2.00;99.90
4002;DHT22;2015;48.670;9.060;2023-01-25T01:54:58;2.00;99.90
4002;DHT22;2015;48.670;9.060;2023-01-25T01:57:42;2.00;99.90
4002;DHT22;2015;48.670;9.060;2023-01-25T02:00:24;2.00;99.90
4002;DHT22;2015;48.670;9.060;2023-01-25T02:02:58;2.00;99.90
4002;DHT22;2015;48.670;9.060;2023-01-25T02:05:56;2.00;99.90
4002;DHT22;2015;48.670;9.060;2023-01-25T02:08:32;2.00;99.90
4002;DHT22;2015;48.670;9.060;2023-01-25T02:11:04;2.00;99.90
4002;DHT22;2015;48.670;9.060;2023-01-25T02:13:38;2.00;99.90
4002;DHT22;2015;48.670;9.060;2023-01-25T02:16:15;2.00;99.90
4002;DHT22;2015;48.670;9.060;2023-01-25T02:18:51;2.00;99.90
4002;DHT22;2015;48.670;9.060;2023-01-25T02:21:24;1.90;99.90
4002;DHT22;2015;48.670;9.060;2023-01-25T02:24:06;2.00;99.90
4002;DHT22;2015;48.670;9.060;2023-01-25T02:26:40;2.00;99.90
4002;DHT22;2015;48.670;9.060;2023-01-25T02:29:12;2.00;99.90
4002;DHT22;2015;48.670;9.060;2023-01-25T02:31:46;2.00;99.90
4002;DHT22;2015;48.670;9.060;2023-01-25T02:34:20;2.00;99.90
4002;DHT22;2015;48.670;9.060;2023-01-25T02:36:51;1.90;99.90
4002;DHT22;2015;48.670;9.060;2023-01-25T02:39:24;1.90;99.90
4002;DHT22;2015;48.670;9.060;2023-01-25T02:41:58;1.90;99.90
4002;DHT22;2015;48.670;9.060;2023-01-25T02:44:31;1.90;99.90
4002;DHT22;2015;48.670;9.060;2023-01-25T02:47:05;1.90;99.90
4002;DHT22;2015;48.670;9.060;2023-01-25T02:49:37;1.90;99.90
4002;DHT22;2015;48.670;9.060;2023-01-25T02:52:08;2.00;99.90
4002;DHT22;2015;48.670;9.060;2023-01-25T02:54:40;2.00;99.90
4002;DHT22;2015;48.670;9.060;2023-01-25T02:57:12;2.00;99.90
4002;DHT22;2015;48.670;9.060;2023-01-25T02:59:44;2.00;99.90
4002;DHT22;2015;48.670;9.060;2023-01-25T03:02:15;2.00;99.90
4002;DHT22;2015;48.670;9.060;2023-01-25T03:04:47;2.00;99.90
4002;DHT22;2015;48.670;9.060;2023-01-25T03:07:19;2.00;99.90
4002;DHT22;2015;48.670;9.060;2023-01-25T03:09:51;2.10;99.90
4002;DHT22;2015;48.670;9.060;2023-01-25T03:12:22;2.00;99.90
4002;DHT22;2015;48.670;9.060;2023-01-25T03:14:54;2.00;99.90
4002;DHT22;2015;48.670;9.060;2023-01-25T03:17:26;2.00;99.90
4002;DHT22;2015;48.670;9.060;2023-01-25T03:19:57;2.00;99.90
4002;DHT22;2015;48.670;9.060;2023-01-25T03:22:29;2.00;99.90
4002;DHT22;2015;48.670;9.060;2023-01-25T03:25:01;2.00;99.90
4002;DHT22;2015;48.670;9.060;2023-01-25T03:27:33;2.00;99.90
4002;DHT22;2015;48.670;9.060;2023-01-25T03:30:05;2.00;99.90
4002;DHT22;2015;48.670;9.060;2023-01-25T03:32:37;2.00;99.90
4002;DHT22;2015;48.670;9.060;2023-01-25T03:35:09;2.00;99.90
4002;DHT22;2015;48.670;9.060;2023-01-25T03:37:41;2.00;99.90
4002;DHT22;2015;48.670;9.060;2023-01-25T03:40:13;2.00;99.90
4002;DHT22;2015;48.670;9.060;2023-01-25T03:42:45;2.10;99.90
4002;DHT22;2015;48.670;9.060;2023-01-25T03:45:16;2.10;99.90
4002;DHT22;2015;48.670;9.060;2023-01-25T03:47:48;2.10;99.90
4002;DHT22;2015;48.670;9.060;2023-01-25T03:50:20;2.10;99.90
4002;DHT22;2015;48.670;9.060;2023-01-25T03:52:52;2.10;99.90
4002;DHT22;2015;48.670;9.060;2023-01-25T03:55:30;2.00;99.90
4002;DHT22;2015;48.670;9.060;2023-01-25T03:58:02;2.00;99.90
4002;DHT22;2015;48.670;9.060;2023-01-25T04:00:33;2.00;99.90
4002;DHT22;2015;48.670;9.060;2023-01-25T04:03:05;2.00;99.90
4002;DHT22;2015;48.670;9.060;2023-01-25T04:05:37;2.00;99.90
4002;DHT22;2015;48.670;9.060;2023-01-25T04:08:09;2.00;99.90
4002;DHT22;2015;48.670;9.060;2023-01-25T04:10:40;2.00;99.90
4002;DHT22;2015;48.670;9.060;2023-01-25T04:13:12;2.00;99.90
4002;DHT22;2015;48.670;9.060;2023-01-25T04:15:44;2.00;99.90
4002;DHT22;2015;48.670;9.060;2023-01-25T04:18:16;2.00;99.90
4002;DHT22;2015;48.670;9.060;2023-01-25T04:20:55;2.00;99.90
4002;DHT22;2015;48.670;9.060;2023-01-25T04:23:27;2.00;99.90
4002;DHT22;2015;48.670;9.060;2023-01-25T04:26:01;2.00;99.90
4002;DHT22;2015;48.670;9.060;2023-01-25T04:28:35;2.00;99.90
4002;DHT22;2015;48.670;9.060;2023-01-25T04:31:07;2.00;99.90
4002;DHT22;2015;48.670;9.060;2023-01-25T04:33:39;2.00;99.90
4002;DHT22;2015;48.670;9.060;2023-01-25T04:36:10;2.00;99.90
4002;DHT22;2015;48.670;9.060;2023-01-25T04:38:42;2.00;99.90
4002;DHT22;2015;48.670;9.060;2023-01-25T04:41:14;2.00;99.90
4002;DHT22;2015;48.670;9.060;2023-01-25T04:43:46;2.00;99.90
4002;DHT22;2015;48.670;9.060;2023-01-25T04:46:17;2.00;99.90
4002;DHT22;2015;48.670;9.060;2023-01-25T04:48:49;2.10;99.90
4002;DHT22;2015;48.670;9.060;2023-01-25T04:51:21;2.00;99.90
4002;DHT22;2015;48.670;9.060;2023-01-25T04:53:53;2.00;99.90
4002;DHT22;2015;48.670;9.060;2023-01-25T04:56:24;2.10;99.90
4002;DHT22;2015;48.670;9.060;2023-01-25T04:58:56;2.00;99.90
4002;DHT22;2015;48.670;9.060;2023-01-25T05:01:28;2.00;99.90
4002;DHT22;2015;48.670;9.060;2023-01-25T05:04:00;2.10;99.90
4002;DHT22;2015;48.670;9.060;2023-01-25T05:06:32;2.10;99.90
4002;DHT22;2015;48.670;9.060;2023-01-25T05:09:03;2.10;99.90
4002;DHT22;2015;48.670;9.060;2023-01-25T05:11:35;2.10;99.90
4002;DHT22;2015;48.670;9.060;2023-01-25T05:14:07;2.10;99.90
4002;DHT22;2015;48.670;9.060;2023-01-25T05:16:39;2.10;99.90
4002;DHT22;2015;48.670;9.060;2023-01-25T05:19:11;2.00;99.90
4002;DHT22;2015;48.670;9.060;2023-01-25T05:21:42;2.00;99.90
4002;DHT22;2015;48.670;9.060;2023-01-25T05:24:31;2.00;99.90
4002;DHT22;2015;48.670;9.060;2023-01-25T05:27:03;2.00;99.90
4002;DHT22;2015;48.670;9.060;2023-01-25T05:29:36;2.00;99.90
4002;DHT22;2015;48.670;9.060;2023-01-25T05:32:14;2.00;99.90
4002;DHT22;2015;48.670;9.060;2023-01-25T05:34:47;1.90;99.90
4002;DHT22;2015;48.670;9.060;2023-01-25T05:37:20;1.90;99.90
4002;DHT22;2015;48.670;9.060;2023-01-25T05:39:52;1.90;99.90
4002;DHT22;2015;48.670;9.060;2023-01-25T05:42:23;1.90;99.90
4002;DHT22;2015;48.670;9.060;2023-01-25T05:44:55;1.90;99.90
4002;DHT22;2015;48.670;9.060;2023-01-25T05:47:27;1.90;99.90
4002;DHT22;2015;48.670;9.060;2023-01-25T05:49:59;1.90;99.90
4002;DHT22;2015;48.670;9.060;2023-01-25T05:52:30;2.00;99.90
4002;DHT22;2015;48.670;9.060;2023-01-25T05:55:02;2.00;99.90
4002;DHT22;2015;48.670;9.060;2023-01-25T05:57:34;2.00;99.90
4002;DHT22;2015;48.670;9.060;2023-01-25T06:00:07;2.00;99.90
4002;DHT22;2015;48.670;9.060;2023-01-25T06:02:39;2.00;99.90
4002;DHT22;2015;48.670;9.060;2023-01-25T06:05:11;2.00;99.90
4002;DHT22;2015;48.670;9.060;2023-01-25T06:07:43;2.00;99.90
4002;DHT22;2015;48.670;9.060;2023-01-25T06:10:15;2.00;99.90
4002;DHT22;2015;48.670;9.060;2023-01-25T06:12:47;2.00;99.90
4002;DHT22;2015;48.670;9.060;2023-01-25T06:15:18;2.00;99.90
4002;DHT22;2015;48.670;9.060;2023-01-25T06:17:55;2.00;99.90
4002;DHT22;2015;48.670;9.060;2023-01-25T06:20:27;2.00;99.90
4002;DHT22;2015;48.670;9.060;2023-01-25T06:22:58;2.10;99.90
4002;DHT22;2015;48.670;9.060;2023-01-25T06:25:30;2.10;99.90
4002;DHT22;2015;48.670;9.060;2023-01-25T06:28:02;2.00;99.90
4002;DHT22;2015;48.670;9.060;2023-01-25T06:30:34;2.00;99.90
4002;DHT22;2015;48.670;9.060;2023-01-25T06:33:06;2.10;99.90
4002;DHT22;2015;48.670;9.060;2023-01-25T06:35:38;2.00;99.90
4002;DHT22;2015;48.670;9.060;2023-01-25T06:38:10;2.00;99.90
4002;DHT22;2015;48.670;9.060;2023-01-25T06:40:42;2.10;99.90
4002;DHT22;2015;48.670;9.060;2023-01-25T06:43:14;2.00;99.90
4002;DHT22;2015;48.670;9.060;2023-01-25T06:45:46;2.00;99.90
4002;DHT22;2015;48.670;9.060;2023-01-25T06:48:17;2.00;99.90
4002;DHT22;2015;48.670;9.060;2023-01-25T06:51:00;2.00;99.90
4002;DHT22;2015;48.670;9.060;2023-01-25T06:53:34;2.00;99.90
4002;DHT22;2015;48.670;9.060;2023-01-25T06:56:09;2.00;99.90
4002;DHT22;2015;48.670;9.060;2023-01-25T06:58:43;2.10;99.90
4002;DHT22;2015;48.670;9.060;2023-01-25T07:01:17;2.10;99.90
4002;DHT22;2015;48.670;9.060;2023-01-25T07:03:55;2.10;99.90
4002;DHT22;2015;48.670;9.060;2023-01-25T07:06:31;2.10;99.90
4002;DHT22;2015;48.670;9.060;2023-01-25T07:09:08;2.00;99.90
4002;DHT22;2015;48.670;9.060;2023-01-25T07:11:40;2.10;99.90
4002;DHT22;2015;48.670;9.060;2023-01-25T07:14:12;2.10;99.90
4002;DHT22;2015;48.670;9.060;2023-01-25T07:16:43;2.10;99.90
4002;DHT22;2015;48.670;9.060;2023-01-25T07:19:15;2.20;99.90
4002;DHT22;2015;48.670;9.060;2023-01-25T07:21:48;2.20;99.90
4002;DHT22;2015;48.670;9.060;2023-01-25T07:24:20;2.20;99.90
4002;DHT22;2015;48.670;9.060;2023-01-25T07:26:52;2.20;99.90
4002;DHT22;2015;48.670;9.060;2023-01-25T07:29:24;2.20;99.90
4002;DHT22;2015;48.670;9.060;2023-01-25T07:31:55;2.20;99.90
4002;DHT22;2015;48.670;9.060;2023-01-25T07:34:27;2.20;99.90
4002;DHT22;2015;48.670;9.060;2023-01-25T07:36:59;2.20;99.90
4002;DHT22;2015;48.670;9.060;2023-01-25T07:39:31;2.10;99.90
4002;DHT22;2015;48.670;9.060;2023-01-25T07:42:03;2.10;99.90
4002;DHT22;2015;48.670;9.060;2023-01-25T07:44:34;2.10;99.90
4002;DHT22;2015;48.670;9.060;2023-01-25T07:47:06;2.10;99.90
4002;DHT22;2015;48.670;9.060;2023-01-25T07:49:38;2.00;99.90
4002;DHT22;2015;48.670;9.060;2023-01-25T07:52:10;2.10;99.90
4002;DHT22;2015;48.670;9.060;2023-01-25T07:54:41;2.10;99.90
4002;DHT22;2015;48.670;9.060;2023-01-25T07:57:14;2.10;99.90
4002;DHT22;2015;48.670;9.060;2023-01-25T07:59:45;2.10;99.90
4002;DHT22;2015;48.670;9.060;2023-01-25T08:02:17;2.10;99.90
4002;DHT22;2015;48.670;9.060;2023-01-25T08:04:49;2.10;99.90
4002;DHT22;2015;48.670;9.060;2023-01-25T08:07:21;2.10;99.90
4002;DHT22;2015;48.670;9.060;2023-01-25T08:09:54;2.10;99.90
4002;DHT22;2015;48.670;9.060;2023-01-25T08:12:26;2.10;99.90
4002;DHT22;2015;48.670;9.060;2023-01-25T08:14:59;2.10;99.90
4002;DHT22;2015;48.670;9.060;2023-01-25T08:17:31;2.10;99.90
4002;DHT22;2015;48.670;9.060;2023-01-25T08:20:04;2.10;99.90
4002;DHT22;2015;48.670;9.060;2023-01-25T08:22:36;2.10;99.90
4002;DHT22;2015;48.670;9.060;2023-01-25T08:25:08;2.10;99.90
4002;DHT22;2015;48.670;9.060;2023-01-25T08:27:40;2.10;99.90
4002;DHT22;2015;48.670;9.060;2023-01-25T08:30:12;2.10;99.90
4002;DHT22;2015;48.670;9.060;2023-01-25T08:32:44;2.20;99.90
4002;DHT22;2015;48.670;9.060;2023-01-25T08:35:16;2.30;99.90
4002;DHT22;2015;48.670;9.060;2023-01-25T08:37:48;2.20;99.90
4002;DHT22;2015;48.670;9.060;2023-01-25T08:40:19;2.20;99.90
4002;DHT22;2015;48.670;9.060;2023-01-25T08:42:51;2.20;99.90
4002;DHT22;2015;48.670;9.060;2023-01-25T08:45:23;2.20;99.90
4002;DHT22;2015;48.670;9.060;2023-01-25T08:47:55;2.20;99.90
4002;DHT22;2015;48.670;9.060;2023-01-25T08:50:26;2.20;99.90
4002;DHT22;2015;48.670;9.060;2023-01-25T08:52:58;2.20;99.90
4002;DHT22;2015;48.670;9.060;2023-01-25T08:55:30;2.20;99.90
4002;DHT22;2015;48.670;9.060;2023-01-25T08:58:02;2.20;99.90
4002;DHT22;2015;48.670;9.060;2023-01-25T09:00:33;2.20;99.90
4002;DHT22;2015;48.670;9.060;2023-01-25T09:03:09;2.30;99.90
4002;DHT22;2015;48.670;9.060;2023-01-25T09:05:41;2.20;99.90
4002;DHT22;2015;48.670;9.060;2023-01-25T09:08:12;2.20;99.90
4002;DHT22;2015;48.670;9.060;2023-01-25T09:10:44;2.10;99.90
4002;DHT22;2015;48.670;9.060;2023-01-25T09:13:16;2.20;99.90
4002;DHT22;2015;48.670;9.060;2023-01-25T09:15:47;2.20;99.90
4002;DHT22;2015;48.670;9.060;2023-01-25T09:18:19;2.30;99.90
4002;DHT22;2015;48.670;9.060;2023-01-25T09:20:51;2.40;99.90
4002;DHT22;2015;48.670;9.060;2023-01-25T09:23:23;2.30;99.90
4002;DHT22;2015;48.670;9.060;2023-01-25T09:25:58;2.30;99.90
4002;DHT22;2015;48.670;9.060;2023-01-25T09:28:31;2.30;99.90
4002;DHT22;2015;48.670;9.060;2023-01-25T09:31:05;2.20;99.90
4002;DHT22;2015;48.670;9.060;2023-01-25T09:33:52;2.20;99.90
4002;DHT22;2015;48.670;9.060;2023-01-25T09:36:24;2.20;99.90
4002;DHT22;2015;48.670;9.060;2023-01-25T09:38:56;2.30;99.90
4002;DHT22;2015;48.670;9.060;2023-01-25T09:44:49;2.20;99.90
4002;DHT22;2015;48.670;9.060;2023-01-25T09:50:34;2.00;99.90
4002;DHT22;2015;48.670;9.060;2023-01-25T09:55:53;2.10;99.90
4002;DHT22;2015;48.670;9.060;2023-01-25T09:58:39;2.10;99.90
4002;DHT22;2015;48.670;9.060;2023-01-25T10:01:45;2.20;99.90
4002;DHT22;2015;48.670;9.060;2023-01-25T10:04:36;2.20;99.90
4002;DHT22;2015;48.670;9.060;2023-01-25T10:07:21;2.40;99.90
4002;DHT22;2015;48.670;9.060;2023-01-25T10:13:14;2.30;99.90
4002;DHT22;2015;48.670;9.060;2023-01-25T10:15:50;2.30;99.90
4002;DHT22;2015;48.670;9.060;2023-01-25T10:18:40;2.30;99.90
4002;DHT22;2015;48.670;9.060;2023-01-25T10:21:20;2.30;99.90
4002;DHT22;2015;48.670;9.060;2023-01-25T10:24:06;2.30;99.90
4002;DHT22;2015;48.670;9.060;2023-01-25T10:26:43;2.30;99.90
4002;DHT22;2015;48.670;9.060;2023-01-25T10:29:27;2.20;99.90
4002;DHT22;2015;48.670;9.060;2023-01-25T10:32:28;2.20;99.90
4002;DHT22;2015;48.670;9.060;2023-01-25T10:35:15;2.20;99.90
4002;DHT22;2015;48.670;9.060;2023-01-25T10:38:10;2.20;99.90
4002;DHT22;2015;48.670;9.060;2023-01-25T10:41:06;2.20;99.90
4002;DHT22;2015;48.670;9.060;2023-01-25T10:43:40;2.20;99.90
4002;DHT22;2015;48.670;9.060;2023-01-25T10:46:20;2.20;99.90
4002;DHT22;2015;48.670;9.060;2023-01-25T10:48:52;2.30;99.90
4002;DHT22;2015;48.670;9.060;2023-01-25T10:51:29;2.30;99.90
4002;DHT22;2015;48.670;9.060;2023-01-25T10:54:03;2.30;99.90
4002;DHT22;2015;48.670;9.060;2023-01-25T10:56:38;2.30;99.90
4002;DHT22;2015;48.670;9.060;2023-01-25T10:59:16;2.20;99.90
4002;DHT22;2015;48.670;9.060;2023-01-25T11:01:49;2.20;99.90
4002;DHT22;2015;48.670;9.060;2023-01-25T11:04:33;2.20;99.90
4002;DHT22;2015;48.670;9.060;2023-01-25T11:07:26;2.20;99.90
4002;DHT22;2015;48.670;9.060;2023-01-25T11:09:59;2.20;99.90
4002;DHT22;2015;48.670;9.060;2023-01-25T11:12:31;2.20;99.90
4002;DHT22;2015;48.670;9.060;2023-01-25T11:15:22;2.20;99.90
4002;DHT22;2015;48.670;9.060;2023-01-25T11:18:12;2.30;99.90
4002;DHT22;2015;48.670;9.060;2023-01-25T11:20:46;2.30;99.90
4002;DHT22;2015;48.670;9.060;2023-01-25T11:23:23;2.20;99.90
4002;DHT22;2015;48.670;9.060;2023-01-25T11:26:16;2.20;99.90
4002;DHT22;2015;48.670;9.060;2023-01-25T11:28:48;2.10;99.90
4002;DHT22;2015;48.670;9.060;2023-01-25T11:31:21;2.10;99.90
4002;DHT22;2015;48.670;9.060;2023-01-25T11:33:53;2.10;99.90
4002;DHT22;2015;48.670;9.060;2023-01-25T11:51:14;2.10;99.90
4002;DHT22;2015;48.670;9.060;2023-01-25T11:57:25;2.20;99.90
4002;DHT22;2015;48.670;9.060;2023-01-25T12:11:05;2.10;99.90
4002;DHT22;2015;48.670;9.060;2023-01-25T12:28:35;2.20;99.90
4002;DHT22;2015;48.670;9.060;2023-01-25T12:31:15;2.20;99.90
4002;DHT22;2015;48.670;9.060;2023-01-25T12:36:35;2.30;99.90
4002;DHT22;2015;48.670;9.060;2023-01-25T12:39:31;2.30;99.90
4002;DHT22;2015;48.670;9.060;2023-01-25T12:42:24;2.30;99.90
4002;DHT22;2015;48.670;9.060;2023-01-25T12:45:08;2.30;99.90
4002;DHT22;2015;48.670;9.060;2023-01-25T12:53:40;2.30;99.90
4002;DHT22;2015;48.670;9.060;2023-01-25T12:56:30;2.30;99.90
4002;DHT22;2015;48.670;9.060;2023-01-25T12:59:11;2.30;99.90
4002;DHT22;2015;48.670;9.060;2023-01-25T13:10:39;2.20;99.90
4002;DHT22;2015;48.670;9.060;2023-01-25T13:13:28;2.10;99.90
4002;DHT22;2015;48.670;9.060;2023-01-25T13:19:00;2.00;99.90
4002;DHT22;2015;48.670;9.060;2023-01-25T13:24:24;2.00;99.90
4002;DHT22;2015;48.670;9.060;2023-01-25T13:27:09;2.10;99.90
4002;DHT22;2015;48.670;9.060;2023-01-25T13:35:31;2.20;99.90
4002;DHT22;2015;48.670;9.060;2023-01-25T13:40:38;2.20;99.90
4002;DHT22;2015;48.670;9.060;2023-01-25T13:43:20;2.20;99.90
4002;DHT22;2015;48.670;9.060;2023-01-25T13:45:53;2.30;99.90
4002;DHT22;2015;48.670;9.060;2023-01-25T13:48:25;2.30;99.90
4002;DHT22;2015;48.670;9.060;2023-01-25T13:51:05;2.20;99.90
4002;DHT22;2015;48.670;9.060;2023-01-25T13:53:39;2.20;99.90
4002;DHT22;2015;48.670;9.060;2023-01-25T13:56:43;2.20;99.90
4002;DHT22;2015;48.670;9.060;2023-01-25T13:59:26;2.20;99.90
4002;DHT22;2015;48.670;9.060;2023-01-25T14:01:58;2.20;99.90
4002;DHT22;2015;48.670;9.060;2023-01-25T14:04:32;2.10;99.90
4002;DHT22;2015;48.670;9.060;2023-01-25T14:07:04;2.10;99.90
4002;DHT22;2015;48.670;9.060;2023-01-25T14:09:42;2.10;99.90
4002;DHT22;2015;48.670;9.060;2023-01-25T14:12:39;2.10;99.90
4002;DHT22;2015;48.670;9.060;2023-01-25T14:15:24;2.20;99.90
4002;DHT22;2015;48.670;9.060;2023-01-25T14:18:16;2.20;99.90
4002;DHT22;2015;48.670;9.060;2023-01-25T14:20:50;2.30;99.90
4002;DHT22;2015;48.670;9.060;2023-01-25T14:23:28;2.20;99.90
4002;DHT22;2015;48.670;9.060;2023-01-25T14:26:01;2.30;99.90
4002;DHT22;2015;48.670;9.060;2023-01-25T14:28:32;2.20;99.90
4002;DHT22;2015;48.670;9.060;2023-01-25T14:31:04;2.30;99.90
4002;DHT22;2015;48.670;9.060;2023-01-25T14:33:36;2.20;99.90
4002;DHT22;2015;48.670;9.060;2023-01-25T14:36:13;2.20;99.90
4002;DHT22;2015;48.670;9.060;2023-01-25T14:38:55;2.20;99.90
4002;DHT22;2015;48.670;9.060;2023-01-25T14:44:02;2.10;99.90
4002;DHT22;2015;48.670;9.060;2023-01-25T14:46:36;2.20;99.90
4002;DHT22;2015;48.670;9.060;2023-01-25T14:51:43;2.20;99.90
4002;DHT22;2015;48.670;9.060;2023-01-25T14:54:21;2.10;99.90
4002;DHT22;2015;48.670;9.060;2023-01-25T14:56:58;2.10;99.90
4002;DHT22;2015;48.670;9.060;2023-01-25T14:59:50;2.10;99.90
4002;DHT22;2015;48.670;9.060;2023-01-25T15:02:46;1.90;99.90
4002;DHT22;2015;48.670;9.060;2023-01-25T15:05:27;1.80;99.90
4002;DHT22;2015;48.670;9.060;2023-01-25T15:10:51;1.70;99.90
4002;DHT22;2015;48.670;9.060;2023-01-25T15:13:25;1.70;99.90
4002;DHT22;2015;48.670;9.060;2023-01-25T15:16:01;1.70;99.90
4002;DHT22;2015;48.670;9.060;2023-01-25T15:18:48;1.60;99.90
4002;DHT22;2015;48.670;9.060;2023-01-25T15:21:29;1.60;99.90
4002;DHT22;2015;48.670;9.060;2023-01-25T15:24:06;1.60;99.90
4002;DHT22;2015;48.670;9.060;2023-01-25T15:26:41;1.60;99.90
4002;DHT22;2015;48.670;9.060;2023-01-25T15:29:14;1.60;99.90
4002;DHT22;2015;48.670;9.060;2023-01-25T15:31:48;1.70;99.90
4002;DHT22;2015;48.670;9.060;2023-01-25T15:34:29;1.70;99.90
4002;DHT22;2015;48.670;9.060;2023-01-25T15:37:04;1.80;99.90
4002;DHT22;2015;48.670;9.060;2023-01-25T15:39:35;1.80;99.90
4002;DHT22;2015;48.670;9.060;2023-01-25T15:42:08;1.70;99.90
4002;DHT22;2015;48.670;9.060;2023-01-25T15:44:40;1.70;99.90
4002;DHT22;2015;48.670;9.060;2023-01-25T15:47:12;1.60;99.90
4002;DHT22;2015;48.670;9.060;2023-01-25T15:49:44;1.60;99.90
4002;DHT22;2015;48.670;9.060;2023-01-25T15:52:19;1.60;99.90
4002;DHT22;2015;48.670;9.060;2023-01-25T15:54:51;1.60;99.90
4002;DHT22;2015;48.670;9.060;2023-01-25T15:57:34;1.60;99.90
4002;DHT22;2015;48.670;9.060;2023-01-25T16:00:17;1.60;99.90
4002;DHT22;2015;48.670;9.060;2023-01-25T16:02:50;1.60;99.90
4002;DHT22;2015;48.670;9.060;2023-01-25T16:05:21;1.60;99.90
4002;DHT22;2015;48.670;9.060;2023-01-25T16:07:54;1.60;99.90
4002;DHT22;2015;48.670;9.060;2023-01-25T16:10:26;1.70;99.90
4002;DHT22;2015;48.670;9.060;2023-01-25T16:12:58;1.70;99.90
4002;DHT22;2015;48.670;9.060;2023-01-25T16:15:30;1.70;99.90
4002;DHT22;2015;48.670;9.060;2023-01-25T16:18:01;1.80;99.90
4002;DHT22;2015;48.670;9.060;2023-01-25T16:20:33;1.80;99.90
4002;DHT22;2015;48.670;9.060;2023-01-25T16:23:05;1.70;99.90
4002;DHT22;2015;48.670;9.060;2023-01-25T16:25:40;1.80;99.90
4002;DHT22;2015;48.670;9.060;2023-01-25T16:28:15;1.80;99.90
4002;DHT22;2015;48.670;9.060;2023-01-25T16:30:47;1.80;99.90
4002;DHT22;2015;48.670;9.060;2023-01-25T16:33:20;1.90;99.90
4002;DHT22;2015;48.670;9.060;2023-01-25T16:38:43;1.80;99.90
4002;DHT22;2015;48.670;9.060;2023-01-25T16:41:15;1.70;99.90
4002;DHT22;2015;48.670;9.060;2023-01-25T16:43:48;1.80;99.90
4002;DHT22;2015;48.670;9.060;2023-01-25T16:46:22;1.70;99.90
4002;DHT22;2015;48.670;9.060;2023-01-25T16:48:56;1.60;99.90
4002;DHT22;2015;48.670;9.060;2023-01-25T16:51:28;1.60;99.90
4002;DHT22;2015;48.670;9.060;2023-01-25T16:54:00;1.50;99.90
4002;DHT22;2015;48.670;9.060;2023-01-25T16:56:32;1.40;99.90
4002;DHT22;2015;48.670;9.060;2023-01-25T16:59:05;1.50;99.90
4002;DHT22;2015;48.670;9.060;2023-01-25T17:01:38;1.50;99.90
4002;DHT22;2015;48.670;9.060;2023-01-25T17:04:11;1.50;99.90
4002;DHT22;2015;48.670;9.060;2023-01-25T17:06:46;1.50;99.90
4002;DHT22;2015;48.670;9.060;2023-01-25T17:09:19;1.40;99.90
4002;DHT22;2015;48.670;9.060;2023-01-25T17:11:55;1.40;99.90
4002;DHT22;2015;48.670;9.060;2023-01-25T17:14:26;1.40;99.90
4002;DHT22;2015;48.670;9.060;2023-01-25T17:16:58;1.50;99.90
4002;DHT22;2015;48.670;9.060;2023-01-25T17:19:30;1.50;99.90
4002;DHT22;2015;48.670;9.060;2023-01-25T17:22:02;1.50;99.90
4002;DHT22;2015;48.670;9.060;2023-01-25T17:24:34;1.50;99.90
4002;DHT22;2015;48.670;9.060;2023-01-25T17:27:06;1.50;99.90
4002;DHT22;2015;48.670;9.060;2023-01-25T17:29:38;1.40;99.90
4002;DHT22;2015;48.670;9.060;2023-01-25T17:32:10;1.50;99.90
4002;DHT22;2015;48.670;9.060;2023-01-25T17:34:42;1.50;99.90
4002;DHT22;2015;48.670;9.060;2023-01-25T17:37:13;1.50;99.90
4002;DHT22;2015;48.670;9.060;2023-01-25T17:39:45;1.40;99.90
4002;DHT22;2015;48.670;9.060;2023-01-25T17:42:18;1.50;99.90
4002;DHT22;2015;48.670;9.060;2023-01-25T17:44:50;1.50;99.90
4002;DHT22;2015;48.670;9.060;2023-01-25T17:47:21;1.50;99.90
4002;DHT22;2015;48.670;9.060;2023-01-25T17:49:53;1.50;99.90
4002;DHT22;2015;48.670;9.060;2023-01-25T17:52:25;1.60;99.90
4002;DHT22;2015;48.670;9.060;2023-01-25T17:54:57;1.70;99.90
4002;DHT22;2015;48.670;9.060;2023-01-25T17:57:31;1.60;99.90
4002;DHT22;2015;48.670;9.060;2023-01-25T18:00:06;1.60;99.90
4002;DHT22;2015;48.670;9.060;2023-01-25T18:02:42;1.60;99.90
4002;DHT22;2015;48.670;9.060;2023-01-25T18:05:15;1.60;99.90
4002;DHT22;2015;48.670;9.060;2023-01-25T18:07:47;1.50;99.90
4002;DHT22;2015;48.670;9.060;2023-01-25T18:10:19;1.50;99.90
4002;DHT22;2015;48.670;9.060;2023-01-25T18:12:51;1.50;99.90
4002;DHT22;2015;48.670;9.060;2023-01-25T18:15:35;1.40;99.90
4002;DHT22;2015;48.670;9.060;2023-01-25T18:18:06;1.50;99.90
4002;DHT22;2015;48.670;9.060;2023-01-25T18:20:38;1.50;99.90
4002;DHT22;2015;48.670;9.060;2023-01-25T18:23:10;1.50;99.90
4002;DHT22;2015;48.670;9.060;2023-01-25T18:25:42;1.50;99.90
4002;DHT22;2015;48.670;9.060;2023-01-25T18:28:14;1.50;99.90
4002;DHT22;2015;48.670;9.060;2023-01-25T18:30:51;1.50;99.90
4002;DHT22;2015;48.670;9.060;2023-01-25T18:33:24;1.50;99.90
4002;DHT22;2015;48.670;9.060;2023-01-25T18:35:55;1.50;99.90
4002;DHT22;2015;48.670;9.060;2023-01-25T18:38:33;1.50;99.90
4002;DHT22;2015;48.670;9.060;2023-01-25T18:41:04;1.40;99.90
4002;DHT22;2015;48.670;9.060;2023-01-25T18:43:37;1.40;99.90
4002;DHT22;2015;48.670;9.060;2023-01-25T18:46:08;1.40;99.90
4002;DHT22;2015;48.670;9.060;2023-01-25T18:48:42;1.40;99.90
4002;DHT22;2015;48.670;9.060;2023-01-25T18:51:17;1.40;99.90
4002;DHT22;2015;48.670;9.060;2023-01-25T18:53:49;1.30;99.90
4002;DHT22;2015;48.670;9.060;2023-01-25T18:56:21;1.30;99.90
4002;DHT22;2015;48.670;9.060;2023-01-25T18:58:54;1.40;99.90